Aviation Digital Data Service (ADDS)

Output produced by METARs form (2320 UTC 24 May 2018)
found at http://aviationweather.gov/adds/metars/
 
KRIC 241734Z 2418/2518 01006KT P6SM SKC 
     FM242000 VRB05KT P6SM SKC 
     FM251500 20007KT P6SM SKC